sensor_id;sensor_type;location;lat;lon;timestamp;P1;durP1;ratioP1;P2;durP2;ratioP2
69985;SDS011;57328;52.054;5.294;2022-09-12T00:01:10;14.93;;;9.88;;
69985;SDS011;57328;52.054;5.294;2022-09-12T00:03:40;17.73;;;10.70;;
69985;SDS011;57328;52.054;5.294;2022-09-12T00:06:08;14.77;;;7.70;;
69985;SDS011;57328;52.054;5.294;2022-09-12T00:11:04;19.17;;;11.18;;
69985;SDS011;57328;52.054;5.294;2022-09-12T00:13:31;19.65;;;10.02;;
69985;SDS011;57328;52.054;5.294;2022-09-12T00:15:58;19.13;;;12.18;;
69985;SDS011;57328;52.054;5.294;2022-09-12T00:18:28;21.30;;;12.52;;
69985;SDS011;57328;52.054;5.294;2022-09-12T00:20:55;18.27;;;8.30;;
69985;SDS011;57328;52.054;5.294;2022-09-12T00:23:22;18.90;;;10.85;;
69985;SDS011;57328;52.054;5.294;2022-09-12T00:25:49;21.15;;;11.82;;
69985;SDS011;57328;52.054;5.294;2022-09-12T00:28:19;16.95;;;9.75;;
69985;SDS011;57328;52.054;5.294;2022-09-12T00:30:47;17.85;;;10.88;;
69985;SDS011;57328;52.054;5.294;2022-09-12T00:33:16;22.38;;;12.88;;
69985;SDS011;57328;52.054;5.294;2022-09-12T00:35:44;23.13;;;12.38;;
69985;SDS011;57328;52.054;5.294;2022-09-12T00:38:12;17.58;;;9.48;;
69985;SDS011;57328;52.054;5.294;2022-09-12T00:40:41;19.17;;;10.82;;
69985;SDS011;57328;52.054;5.294;2022-09-12T00:43:11;20.15;;;12.00;;
69985;SDS011;57328;52.054;5.294;2022-09-12T00:45:40;15.73;;;9.02;;
69985;SDS011;57328;52.054;5.294;2022-09-12T00:48:12;22.92;;;13.27;;
69985;SDS011;57328;52.054;5.294;2022-09-12T00:50:41;20.02;;;11.55;;
69985;SDS011;57328;52.054;5.294;2022-09-12T00:53:08;20.98;;;11.27;;
69985;SDS011;57328;52.054;5.294;2022-09-12T00:55:40;23.13;;;13.50;;
69985;SDS011;57328;52.054;5.294;2022-09-12T00:58:08;22.02;;;12.90;;
69985;SDS011;57328;52.054;5.294;2022-09-12T01:00:37;22.92;;;12.82;;
69985;SDS011;57328;52.054;5.294;2022-09-12T01:03:10;25.65;;;13.95;;
69985;SDS011;57328;52.054;5.294;2022-09-12T01:05:40;21.70;;;12.80;;
69985;SDS011;57328;52.054;5.294;2022-09-12T01:08:11;24.02;;;11.57;;
69985;SDS011;57328;52.054;5.294;2022-09-12T01:10:39;20.52;;;11.52;;
69985;SDS011;57328;52.054;5.294;2022-09-12T01:13:07;17.90;;;11.35;;
69985;SDS011;57328;52.054;5.294;2022-09-12T01:15:36;20.60;;;11.93;;
69985;SDS011;57328;52.054;5.294;2022-09-12T01:20:40;24.13;;;13.30;;
69985;SDS011;57328;52.054;5.294;2022-09-12T01:23:19;24.63;;;13.93;;
69985;SDS011;57328;52.054;5.294;2022-09-12T01:28:42;24.10;;;14.05;;
69985;SDS011;57328;52.054;5.294;2022-09-12T01:31:23;24.30;;;12.25;;
69985;SDS011;57328;52.054;5.294;2022-09-12T01:36:43;22.85;;;13.63;;
69985;SDS011;57328;52.054;5.294;2022-09-12T01:39:27;25.25;;;13.13;;
69985;SDS011;57328;52.054;5.294;2022-09-12T01:42:09;29.55;;;16.90;;
69985;SDS011;57328;52.054;5.294;2022-09-12T01:44:49;25.42;;;14.48;;
69985;SDS011;57328;52.054;5.294;2022-09-12T01:47:21;25.98;;;14.25;;
69985;SDS011;57328;52.054;5.294;2022-09-12T01:52:30;29.70;;;16.27;;
69985;SDS011;57328;52.054;5.294;2022-09-12T01:55:22;23.80;;;13.15;;
69985;SDS011;57328;52.054;5.294;2022-09-12T01:58:11;21.05;;;11.13;;
69985;SDS011;57328;52.054;5.294;2022-09-12T02:00:42;30.48;;;17.48;;
69985;SDS011;57328;52.054;5.294;2022-09-12T02:03:16;28.73;;;15.02;;
69985;SDS011;57328;52.054;5.294;2022-09-12T02:05:50;27.80;;;16.05;;
69985;SDS011;57328;52.054;5.294;2022-09-12T02:08:19;29.25;;;16.42;;
69985;SDS011;57328;52.054;5.294;2022-09-12T02:10:59;31.83;;;17.17;;
69985;SDS011;57328;52.054;5.294;2022-09-12T02:13:35;33.17;;;17.38;;
69985;SDS011;57328;52.054;5.294;2022-09-12T02:16:05;33.75;;;17.90;;
69985;SDS011;57328;52.054;5.294;2022-09-12T02:18:39;34.55;;;19.50;;
69985;SDS011;57328;52.054;5.294;2022-09-12T02:21:08;29.67;;;16.02;;
69985;SDS011;57328;52.054;5.294;2022-09-12T02:23:37;26.30;;;13.32;;
69985;SDS011;57328;52.054;5.294;2022-09-12T02:26:08;35.42;;;19.25;;
69985;SDS011;57328;52.054;5.294;2022-09-12T02:28:38;35.75;;;19.38;;
69985;SDS011;57328;52.054;5.294;2022-09-12T02:31:12;33.17;;;17.45;;
69985;SDS011;57328;52.054;5.294;2022-09-12T02:33:46;34.00;;;17.13;;
69985;SDS011;57328;52.054;5.294;2022-09-12T02:36:19;28.70;;;15.98;;
69985;SDS011;57328;52.054;5.294;2022-09-12T02:38:49;30.77;;;16.75;;
69985;SDS011;57328;52.054;5.294;2022-09-12T02:41:19;31.83;;;17.92;;
69985;SDS011;57328;52.054;5.294;2022-09-12T02:43:47;31.42;;;17.20;;
69985;SDS011;57328;52.054;5.294;2022-09-12T02:46:17;31.95;;;17.02;;
69985;SDS011;57328;52.054;5.294;2022-09-12T02:48:46;29.38;;;15.18;;
69985;SDS011;57328;52.054;5.294;2022-09-12T02:51:13;34.58;;;18.45;;
69985;SDS011;57328;52.054;5.294;2022-09-12T02:53:48;31.83;;;17.25;;
69985;SDS011;57328;52.054;5.294;2022-09-12T02:56:17;27.02;;;15.48;;
69985;SDS011;57328;52.054;5.294;2022-09-12T02:58:47;28.73;;;14.80;;
69985;SDS011;57328;52.054;5.294;2022-09-12T03:06:32;30.02;;;16.95;;
69985;SDS011;57328;52.054;5.294;2022-09-12T03:12:12;26.10;;;14.48;;
69985;SDS011;57328;52.054;5.294;2022-09-12T03:19:59;31.23;;;17.40;;
69985;SDS011;57328;52.054;5.294;2022-09-12T03:25:15;30.60;;;16.08;;
69985;SDS011;57328;52.054;5.294;2022-09-12T03:27:45;30.80;;;15.27;;
69985;SDS011;57328;52.054;5.294;2022-09-12T03:30:17;31.63;;;16.80;;
69985;SDS011;57328;52.054;5.294;2022-09-12T03:32:49;31.85;;;16.63;;
69985;SDS011;57328;52.054;5.294;2022-09-12T03:35:17;34.97;;;18.05;;
69985;SDS011;57328;52.054;5.294;2022-09-12T03:37:48;35.47;;;18.50;;
69985;SDS011;57328;52.054;5.294;2022-09-12T03:40:17;36.97;;;19.52;;
69985;SDS011;57328;52.054;5.294;2022-09-12T03:42:44;38.20;;;18.20;;
69985;SDS011;57328;52.054;5.294;2022-09-12T03:45:14;32.28;;;17.27;;
69985;SDS011;57328;52.054;5.294;2022-09-12T03:47:41;32.85;;;17.58;;
69985;SDS011;57328;52.054;5.294;2022-09-12T03:50:11;31.90;;;16.63;;
69985;SDS011;57328;52.054;5.294;2022-09-12T03:52:38;38.08;;;19.38;;
69985;SDS011;57328;52.054;5.294;2022-09-12T03:55:05;32.20;;;16.73;;
69985;SDS011;57328;52.054;5.294;2022-09-12T03:57:34;33.22;;;18.55;;
69985;SDS011;57328;52.054;5.294;2022-09-12T04:00:02;39.20;;;20.52;;
69985;SDS011;57328;52.054;5.294;2022-09-12T04:02:29;40.75;;;19.88;;
69985;SDS011;57328;52.054;5.294;2022-09-12T04:04:56;39.03;;;19.95;;
69985;SDS011;57328;52.054;5.294;2022-09-12T04:07:24;43.70;;;21.17;;
69985;SDS011;57328;52.054;5.294;2022-09-12T04:09:51;38.35;;;19.65;;
69985;SDS011;57328;52.054;5.294;2022-09-12T04:12:19;39.38;;;20.25;;
69985;SDS011;57328;52.054;5.294;2022-09-12T04:14:46;38.88;;;20.40;;
69985;SDS011;57328;52.054;5.294;2022-09-12T04:17:13;38.88;;;20.38;;
69985;SDS011;57328;52.054;5.294;2022-09-12T04:19:42;37.45;;;20.67;;
69985;SDS011;57328;52.054;5.294;2022-09-12T04:22:09;40.90;;;20.23;;
69985;SDS011;57328;52.054;5.294;2022-09-12T04:24:36;43.25;;;21.45;;
69985;SDS011;57328;52.054;5.294;2022-09-12T04:27:04;38.65;;;19.73;;
69985;SDS011;57328;52.054;5.294;2022-09-12T04:29:33;36.83;;;18.65;;
69985;SDS011;57328;52.054;5.294;2022-09-12T04:32:00;46.72;;;23.17;;
69985;SDS011;57328;52.054;5.294;2022-09-12T04:34:29;40.25;;;20.77;;
69985;SDS011;57328;52.054;5.294;2022-09-12T04:36:57;37.40;;;18.52;;
69985;SDS011;57328;52.054;5.294;2022-09-12T04:39:28;41.08;;;20.73;;
69985;SDS011;57328;52.054;5.294;2022-09-12T04:41:55;39.80;;;20.85;;
69985;SDS011;57328;52.054;5.294;2022-09-12T04:44:22;45.67;;;23.50;;
69985;SDS011;57328;52.054;5.294;2022-09-12T04:46:49;44.65;;;21.08;;
69985;SDS011;57328;52.054;5.294;2022-09-12T04:49:17;44.53;;;23.38;;
69985;SDS011;57328;52.054;5.294;2022-09-12T04:51:45;44.90;;;22.15;;
69985;SDS011;57328;52.054;5.294;2022-09-12T04:54:13;48.75;;;24.75;;
69985;SDS011;57328;52.054;5.294;2022-09-12T05:01:35;46.97;;;22.52;;
69985;SDS011;57328;52.054;5.294;2022-09-12T05:04:02;53.05;;;25.13;;
69985;SDS011;57328;52.054;5.294;2022-09-12T05:06:31;48.75;;;24.38;;
69985;SDS011;57328;52.054;5.294;2022-09-12T05:08:59;46.05;;;23.45;;
69985;SDS011;57328;52.054;5.294;2022-09-12T05:11:28;49.30;;;24.83;;
69985;SDS011;57328;52.054;5.294;2022-09-12T05:14:15;52.60;;;25.33;;
69985;SDS011;57328;52.054;5.294;2022-09-12T05:16:44;51.10;;;24.65;;
69985;SDS011;57328;52.054;5.294;2022-09-12T05:19:14;47.83;;;24.38;;
69985;SDS011;57328;52.054;5.294;2022-09-12T05:21:42;53.17;;;25.25;;
69985;SDS011;57328;52.054;5.294;2022-09-12T05:24:09;52.47;;;25.10;;
69985;SDS011;57328;52.054;5.294;2022-09-12T05:26:37;54.97;;;26.23;;
69985;SDS011;57328;52.054;5.294;2022-09-12T05:29:04;50.13;;;24.48;;
69985;SDS011;57328;52.054;5.294;2022-09-12T05:31:32;56.05;;;25.65;;
69985;SDS011;57328;52.054;5.294;2022-09-12T05:33:59;60.85;;;25.60;;
69985;SDS011;57328;52.054;5.294;2022-09-12T05:36:31;52.78;;;25.45;;
69985;SDS011;57328;52.054;5.294;2022-09-12T05:38:59;51.25;;;25.33;;
69985;SDS011;57328;52.054;5.294;2022-09-12T05:41:27;51.78;;;24.48;;
69985;SDS011;57328;52.054;5.294;2022-09-12T05:43:56;63.45;;;25.23;;
69985;SDS011;57328;52.054;5.294;2022-09-12T05:46:26;53.85;;;25.77;;
69985;SDS011;57328;52.054;5.294;2022-09-12T05:48:53;51.83;;;24.92;;
69985;SDS011;57328;52.054;5.294;2022-09-12T05:51:31;47.90;;;24.50;;
69985;SDS011;57328;52.054;5.294;2022-09-12T05:54:01;53.30;;;24.27;;
69985;SDS011;57328;52.054;5.294;2022-09-12T05:56:30;48.63;;;24.63;;
69985;SDS011;57328;52.054;5.294;2022-09-12T05:59:02;52.08;;;25.33;;
69985;SDS011;57328;52.054;5.294;2022-09-12T06:01:31;48.83;;;24.40;;
69985;SDS011;57328;52.054;5.294;2022-09-12T06:03:59;53.92;;;25.05;;
69985;SDS011;57328;52.054;5.294;2022-09-12T06:06:27;50.33;;;24.88;;
69985;SDS011;57328;52.054;5.294;2022-09-12T06:08:55;52.20;;;25.20;;
69985;SDS011;57328;52.054;5.294;2022-09-12T06:11:26;51.33;;;24.67;;
69985;SDS011;57328;52.054;5.294;2022-09-12T06:13:54;48.40;;;23.73;;
69985;SDS011;57328;52.054;5.294;2022-09-12T06:16:26;50.10;;;24.45;;
69985;SDS011;57328;52.054;5.294;2022-09-12T06:18:55;48.72;;;24.20;;
69985;SDS011;57328;52.054;5.294;2022-09-12T06:21:23;47.95;;;24.40;;
69985;SDS011;57328;52.054;5.294;2022-09-12T06:23:54;50.88;;;25.52;;
69985;SDS011;57328;52.054;5.294;2022-09-12T06:26:22;49.33;;;23.85;;
69985;SDS011;57328;52.054;5.294;2022-09-12T06:28:51;54.70;;;25.70;;
69985;SDS011;57328;52.054;5.294;2022-09-12T06:31:20;48.22;;;24.67;;
69985;SDS011;57328;52.054;5.294;2022-09-12T06:33:48;47.10;;;23.95;;
69985;SDS011;57328;52.054;5.294;2022-09-12T06:36:19;51.05;;;25.33;;
69985;SDS011;57328;52.054;5.294;2022-09-12T06:38:47;43.67;;;23.00;;
69985;SDS011;57328;52.054;5.294;2022-09-12T06:41:19;43.10;;;23.33;;
69985;SDS011;57328;52.054;5.294;2022-09-12T06:43:47;42.28;;;23.73;;
69985;SDS011;57328;52.054;5.294;2022-09-12T06:46:14;41.92;;;22.60;;
69985;SDS011;57328;52.054;5.294;2022-09-12T06:48:41;43.08;;;24.60;;
69985;SDS011;57328;52.054;5.294;2022-09-12T06:51:09;37.65;;;22.60;;
69985;SDS011;57328;52.054;5.294;2022-09-12T06:53:39;38.97;;;23.13;;
69985;SDS011;57328;52.054;5.294;2022-09-12T06:56:16;36.47;;;22.38;;
69985;SDS011;57328;52.054;5.294;2022-09-12T06:58:47;38.10;;;23.48;;
69985;SDS011;57328;52.054;5.294;2022-09-12T07:01:19;37.25;;;23.52;;
69985;SDS011;57328;52.054;5.294;2022-09-12T07:03:48;40.55;;;23.73;;
69985;SDS011;57328;52.054;5.294;2022-09-12T07:06:17;39.95;;;22.95;;
69985;SDS011;57328;52.054;5.294;2022-09-12T07:08:49;34.10;;;22.70;;
69985;SDS011;57328;52.054;5.294;2022-09-12T07:11:20;34.75;;;23.75;;
69985;SDS011;57328;52.054;5.294;2022-09-12T07:13:48;35.55;;;23.35;;
69985;SDS011;57328;52.054;5.294;2022-09-12T07:16:16;33.40;;;23.05;;
69985;SDS011;57328;52.054;5.294;2022-09-12T07:18:56;36.15;;;24.63;;
69985;SDS011;57328;52.054;5.294;2022-09-12T07:21:26;36.55;;;22.88;;
69985;SDS011;57328;52.054;5.294;2022-09-12T07:23:58;34.00;;;23.00;;
69985;SDS011;57328;52.054;5.294;2022-09-12T07:26:26;34.70;;;22.75;;
69985;SDS011;57328;52.054;5.294;2022-09-12T07:28:54;34.05;;;22.13;;
69985;SDS011;57328;52.054;5.294;2022-09-12T07:31:42;37.35;;;23.17;;
69985;SDS011;57328;52.054;5.294;2022-09-12T07:34:10;32.80;;;21.70;;
69985;SDS011;57328;52.054;5.294;2022-09-12T07:36:37;35.78;;;23.02;;
69985;SDS011;57328;52.054;5.294;2022-09-12T07:39:04;32.15;;;23.05;;
69985;SDS011;57328;52.054;5.294;2022-09-12T07:41:31;34.03;;;22.55;;
69985;SDS011;57328;52.054;5.294;2022-09-12T07:44:05;34.30;;;22.63;;
69985;SDS011;57328;52.054;5.294;2022-09-12T07:49:15;34.53;;;23.30;;
69985;SDS011;57328;52.054;5.294;2022-09-12T07:51:44;32.13;;;21.77;;
69985;SDS011;57328;52.054;5.294;2022-09-12T07:54:11;33.25;;;21.42;;
69985;SDS011;57328;52.054;5.294;2022-09-12T07:56:38;34.70;;;22.45;;
69985;SDS011;57328;52.054;5.294;2022-09-12T07:59:06;32.47;;;21.45;;
69985;SDS011;57328;52.054;5.294;2022-09-12T08:01:35;32.08;;;21.85;;
69985;SDS011;57328;52.054;5.294;2022-09-12T08:04:03;29.98;;;20.48;;
69985;SDS011;57328;52.054;5.294;2022-09-12T08:06:32;31.40;;;20.27;;
69985;SDS011;57328;52.054;5.294;2022-09-12T08:09:01;29.17;;;20.20;;
69985;SDS011;57328;52.054;5.294;2022-09-12T08:11:28;34.58;;;22.55;;
69985;SDS011;57328;52.054;5.294;2022-09-12T08:13:55;29.20;;;20.65;;
69985;SDS011;57328;52.054;5.294;2022-09-12T08:16:24;32.42;;;21.13;;
69985;SDS011;57328;52.054;5.294;2022-09-12T08:18:52;27.75;;;20.27;;
69985;SDS011;57328;52.054;5.294;2022-09-12T08:21:20;29.30;;;19.83;;
69985;SDS011;57328;52.054;5.294;2022-09-12T08:23:50;27.90;;;19.50;;
69985;SDS011;57328;52.054;5.294;2022-09-12T08:26:18;32.90;;;20.98;;
69985;SDS011;57328;52.054;5.294;2022-09-12T08:28:45;29.48;;;20.45;;
69985;SDS011;57328;52.054;5.294;2022-09-12T08:31:13;30.45;;;19.08;;
69985;SDS011;57328;52.054;5.294;2022-09-12T08:33:42;31.20;;;20.88;;
69985;SDS011;57328;52.054;5.294;2022-09-12T08:36:17;26.30;;;19.10;;
69985;SDS011;57328;52.054;5.294;2022-09-12T08:38:48;30.65;;;20.08;;
69985;SDS011;57328;52.054;5.294;2022-09-12T08:49:07;28.83;;;18.13;;
69985;SDS011;57328;52.054;5.294;2022-09-12T08:51:35;28.42;;;19.02;;
69985;SDS011;57328;52.054;5.294;2022-09-12T08:54:03;28.58;;;18.20;;
69985;SDS011;57328;52.054;5.294;2022-09-12T08:56:31;28.65;;;18.27;;
69985;SDS011;57328;52.054;5.294;2022-09-12T08:59:00;29.58;;;18.67;;
69985;SDS011;57328;52.054;5.294;2022-09-12T09:01:30;29.83;;;18.13;;
69985;SDS011;57328;52.054;5.294;2022-09-12T09:09:09;27.90;;;17.58;;
69985;SDS011;57328;52.054;5.294;2022-09-12T09:20:26;35.88;;;17.55;;
69985;SDS011;57328;52.054;5.294;2022-09-12T09:40:24;24.58;;;15.25;;
69985;SDS011;57328;52.054;5.294;2022-09-12T09:43:02;23.20;;;16.27;;
69985;SDS011;57328;52.054;5.294;2022-09-12T09:45:32;24.33;;;16.60;;
69985;SDS011;57328;52.054;5.294;2022-09-12T09:50:42;24.95;;;16.58;;
69985;SDS011;57328;52.054;5.294;2022-09-12T10:00:23;24.48;;;15.95;;
69985;SDS011;57328;52.054;5.294;2022-09-12T10:05:45;22.90;;;15.00;;
69985;SDS011;57328;52.054;5.294;2022-09-12T10:10:53;23.40;;;14.75;;
69985;SDS011;57328;52.054;5.294;2022-09-12T10:13:26;21.27;;;13.55;;
69985;SDS011;57328;52.054;5.294;2022-09-12T10:15:54;19.85;;;13.10;;
69985;SDS011;57328;52.054;5.294;2022-09-12T10:18:35;19.63;;;11.82;;
69985;SDS011;57328;52.054;5.294;2022-09-12T10:21:15;20.15;;;11.52;;
69985;SDS011;57328;52.054;5.294;2022-09-12T10:23:44;18.67;;;11.55;;
69985;SDS011;57328;52.054;5.294;2022-09-12T10:26:15;17.90;;;11.32;;
69985;SDS011;57328;52.054;5.294;2022-09-12T10:28:48;17.98;;;10.15;;
69985;SDS011;57328;52.054;5.294;2022-09-12T10:31:22;14.35;;;9.65;;
69985;SDS011;57328;52.054;5.294;2022-09-12T10:33:57;14.05;;;9.18;;
69985;SDS011;57328;52.054;5.294;2022-09-12T10:36:36;15.02;;;9.00;;
69985;SDS011;57328;52.054;5.294;2022-09-12T10:39:04;13.73;;;8.77;;
69985;SDS011;57328;52.054;5.294;2022-09-12T10:41:36;12.75;;;7.85;;
69985;SDS011;57328;52.054;5.294;2022-09-12T10:44:05;13.68;;;8.52;;
69985;SDS011;57328;52.054;5.294;2022-09-12T10:46:32;14.07;;;7.57;;
69985;SDS011;57328;52.054;5.294;2022-09-12T10:51:39;11.55;;;7.40;;
69985;SDS011;57328;52.054;5.294;2022-09-12T10:54:07;12.60;;;7.88;;
69985;SDS011;57328;52.054;5.294;2022-09-12T11:02:04;11.30;;;6.80;;
69985;SDS011;57328;52.054;5.294;2022-09-12T11:05:00;9.25;;;5.80;;
69985;SDS011;57328;52.054;5.294;2022-09-12T11:07:32;9.13;;;5.47;;
69985;SDS011;57328;52.054;5.294;2022-09-12T11:10:16;8.30;;;5.50;;
69985;SDS011;57328;52.054;5.294;2022-09-12T11:12:50;10.13;;;6.50;;
69985;SDS011;57328;52.054;5.294;2022-09-12T11:20:45;9.48;;;5.68;;
69985;SDS011;57328;52.054;5.294;2022-09-12T11:29:04;10.55;;;6.32;;
69985;SDS011;57328;52.054;5.294;2022-09-12T11:34:21;10.85;;;6.82;;
69985;SDS011;57328;52.054;5.294;2022-09-12T11:39:33;9.95;;;6.32;;
69985;SDS011;57328;52.054;5.294;2022-09-12T11:42:06;11.40;;;7.30;;
69985;SDS011;57328;52.054;5.294;2022-09-12T11:44:36;11.82;;;5.90;;
69985;SDS011;57328;52.054;5.294;2022-09-12T11:47:06;9.30;;;6.05;;
69985;SDS011;57328;52.054;5.294;2022-09-12T11:49:35;10.18;;;6.18;;
69985;SDS011;57328;52.054;5.294;2022-09-12T11:52:12;10.95;;;6.15;;
69985;SDS011;57328;52.054;5.294;2022-09-12T11:54:41;10.18;;;5.78;;
69985;SDS011;57328;52.054;5.294;2022-09-12T11:57:12;8.65;;;6.05;;
69985;SDS011;57328;52.054;5.294;2022-09-12T11:59:47;9.18;;;5.95;;
69985;SDS011;57328;52.054;5.294;2022-09-12T12:02:18;8.63;;;5.22;;
69985;SDS011;57328;52.054;5.294;2022-09-12T12:04:55;12.40;;;6.38;;
69985;SDS011;57328;52.054;5.294;2022-09-12T12:07:25;8.95;;;5.40;;
69985;SDS011;57328;52.054;5.294;2022-09-12T12:09:52;9.88;;;5.40;;
69985;SDS011;57328;52.054;5.294;2022-09-12T12:12:22;10.27;;;6.28;;
69985;SDS011;57328;52.054;5.294;2022-09-12T12:14:51;10.25;;;6.32;;
69985;SDS011;57328;52.054;5.294;2022-09-12T12:17:20;9.88;;;5.88;;
69985;SDS011;57328;52.054;5.294;2022-09-12T12:19:55;8.10;;;5.05;;
69985;SDS011;57328;52.054;5.294;2022-09-12T12:22:30;8.85;;;5.25;;
69985;SDS011;57328;52.054;5.294;2022-09-12T12:25:02;7.93;;;4.70;;
69985;SDS011;57328;52.054;5.294;2022-09-12T12:32:59;7.38;;;4.43;;
69985;SDS011;57328;52.054;5.294;2022-09-12T12:38:03;6.13;;;3.80;;
69985;SDS011;57328;52.054;5.294;2022-09-12T12:40:30;6.75;;;4.10;;
69985;SDS011;57328;52.054;5.294;2022-09-12T12:43:00;6.60;;;3.83;;
69985;SDS011;57328;52.054;5.294;2022-09-12T12:48:00;7.75;;;3.90;;
69985;SDS011;57328;52.054;5.294;2022-09-12T12:50:34;6.70;;;3.65;;
69985;SDS011;57328;52.054;5.294;2022-09-12T12:55:44;6.05;;;3.65;;
69985;SDS011;57328;52.054;5.294;2022-09-12T13:01:02;8.20;;;3.45;;
69985;SDS011;57328;52.054;5.294;2022-09-12T13:03:59;6.05;;;3.53;;
69985;SDS011;57328;52.054;5.294;2022-09-12T13:06:39;6.30;;;3.63;;
69985;SDS011;57328;52.054;5.294;2022-09-12T13:09:22;7.82;;;3.55;;
69985;SDS011;57328;52.054;5.294;2022-09-12T13:12:11;5.93;;;3.67;;
69985;SDS011;57328;52.054;5.294;2022-09-12T13:19:49;5.53;;;3.30;;
69985;SDS011;57328;52.054;5.294;2022-09-12T13:22:40;7.57;;;3.85;;
69985;SDS011;57328;52.054;5.294;2022-09-12T13:25:19;6.85;;;4.03;;
69985;SDS011;57328;52.054;5.294;2022-09-12T13:30:26;7.13;;;3.45;;
69985;SDS011;57328;52.054;5.294;2022-09-12T13:32:55;5.95;;;3.75;;
69985;SDS011;57328;52.054;5.294;2022-09-12T13:35:31;8.50;;;3.58;;
69985;SDS011;57328;52.054;5.294;2022-09-12T13:40:38;7.13;;;3.50;;
69985;SDS011;57328;52.054;5.294;2022-09-12T13:43:17;5.95;;;3.70;;
69985;SDS011;57328;52.054;5.294;2022-09-12T13:46:25;6.05;;;3.33;;
69985;SDS011;57328;52.054;5.294;2022-09-12T13:48:56;6.75;;;3.70;;
69985;SDS011;57328;52.054;5.294;2022-09-12T13:51:25;7.75;;;3.38;;
69985;SDS011;57328;52.054;5.294;2022-09-12T13:53:54;7.05;;;3.17;;
69985;SDS011;57328;52.054;5.294;2022-09-12T13:56:22;7.25;;;3.72;;
69985;SDS011;57328;52.054;5.294;2022-09-12T13:58:51;6.00;;;3.45;;
69985;SDS011;57328;52.054;5.294;2022-09-12T14:01:19;8.73;;;3.67;;
69985;SDS011;57328;52.054;5.294;2022-09-12T14:03:49;7.28;;;3.58;;
69985;SDS011;57328;52.054;5.294;2022-09-12T14:06:48;7.05;;;3.60;;
69985;SDS011;57328;52.054;5.294;2022-09-12T14:09:28;7.82;;;3.72;;
69985;SDS011;57328;52.054;5.294;2022-09-12T14:12:01;6.85;;;3.15;;
69985;SDS011;57328;52.054;5.294;2022-09-12T14:14:36;4.82;;;3.20;;
69985;SDS011;57328;52.054;5.294;2022-09-12T14:17:15;7.55;;;3.80;;
69985;SDS011;57328;52.054;5.294;2022-09-12T14:19:49;6.97;;;3.58;;
69985;SDS011;57328;52.054;5.294;2022-09-12T14:22:20;4.85;;;3.25;;
69985;SDS011;57328;52.054;5.294;2022-09-12T14:24:47;7.13;;;3.53;;
69985;SDS011;57328;52.054;5.294;2022-09-12T14:27:27;5.93;;;3.80;;
69985;SDS011;57328;52.054;5.294;2022-09-12T14:32:29;6.93;;;3.63;;
69985;SDS011;57328;52.054;5.294;2022-09-12T14:35:19;7.10;;;3.53;;
69985;SDS011;57328;52.054;5.294;2022-09-12T14:38:12;5.60;;;3.60;;
69985;SDS011;57328;52.054;5.294;2022-09-12T14:40:47;8.80;;;3.67;;
69985;SDS011;57328;52.054;5.294;2022-09-12T14:43:31;5.65;;;3.13;;
69985;SDS011;57328;52.054;5.294;2022-09-12T14:46:00;6.32;;;3.47;;
69985;SDS011;57328;52.054;5.294;2022-09-12T14:48:29;9.73;;;4.25;;
69985;SDS011;57328;52.054;5.294;2022-09-12T14:50:57;7.78;;;3.10;;
69985;SDS011;57328;52.054;5.294;2022-09-12T14:53:29;7.32;;;3.25;;
69985;SDS011;57328;52.054;5.294;2022-09-12T14:56:08;7.15;;;3.17;;
69985;SDS011;57328;52.054;5.294;2022-09-12T14:58:36;5.07;;;3.08;;
69985;SDS011;57328;52.054;5.294;2022-09-12T15:06:04;3.80;;;2.65;;
69985;SDS011;57328;52.054;5.294;2022-09-12T15:08:34;3.97;;;2.40;;
69985;SDS011;57328;52.054;5.294;2022-09-12T15:11:01;3.70;;;2.63;;
69985;SDS011;57328;52.054;5.294;2022-09-12T15:13:37;5.20;;;3.13;;
69985;SDS011;57328;52.054;5.294;2022-09-12T15:16:06;4.65;;;2.80;;
69985;SDS011;57328;52.054;5.294;2022-09-12T15:18:35;4.70;;;2.85;;
69985;SDS011;57328;52.054;5.294;2022-09-12T15:21:17;3.60;;;2.60;;
69985;SDS011;57328;52.054;5.294;2022-09-12T15:23:46;5.40;;;2.85;;
69985;SDS011;57328;52.054;5.294;2022-09-12T15:26:15;3.80;;;2.67;;
69985;SDS011;57328;52.054;5.294;2022-09-12T15:28:43;4.93;;;2.60;;
69985;SDS011;57328;52.054;5.294;2022-09-12T15:31:25;6.97;;;2.65;;
69985;SDS011;57328;52.054;5.294;2022-09-12T15:34:01;4.22;;;2.45;;
69985;SDS011;57328;52.054;5.294;2022-09-12T15:36:38;5.85;;;2.60;;
69985;SDS011;57328;52.054;5.294;2022-09-12T15:39:07;3.65;;;2.63;;
69985;SDS011;57328;52.054;5.294;2022-09-12T15:41:35;5.05;;;2.42;;
69985;SDS011;57328;52.054;5.294;2022-09-12T15:44:08;3.42;;;2.28;;
69985;SDS011;57328;52.054;5.294;2022-09-12T15:46:36;5.57;;;2.53;;
69985;SDS011;57328;52.054;5.294;2022-09-12T15:49:04;4.35;;;2.22;;
69985;SDS011;57328;52.054;5.294;2022-09-12T15:51:34;4.53;;;2.50;;
69985;SDS011;57328;52.054;5.294;2022-09-12T15:54:02;3.47;;;2.33;;
69985;SDS011;57328;52.054;5.294;2022-09-12T15:56:29;4.03;;;2.55;;
69985;SDS011;57328;52.054;5.294;2022-09-12T15:58:57;3.83;;;2.50;;
69985;SDS011;57328;52.054;5.294;2022-09-12T16:01:26;4.45;;;2.92;;
69985;SDS011;57328;52.054;5.294;2022-09-12T16:03:53;5.03;;;2.53;;
69985;SDS011;57328;52.054;5.294;2022-09-12T16:06:22;4.18;;;2.40;;
69985;SDS011;57328;52.054;5.294;2022-09-12T16:08:50;5.43;;;2.65;;
69985;SDS011;57328;52.054;5.294;2022-09-12T16:11:21;5.45;;;2.70;;
69985;SDS011;57328;52.054;5.294;2022-09-12T16:13:50;4.22;;;2.70;;
69985;SDS011;57328;52.054;5.294;2022-09-12T16:16:17;5.97;;;2.65;;
69985;SDS011;57328;52.054;5.294;2022-09-12T16:18:45;6.13;;;2.50;;
69985;SDS011;57328;52.054;5.294;2022-09-12T16:21:14;7.50;;;2.67;;
69985;SDS011;57328;52.054;5.294;2022-09-12T16:23:42;4.50;;;2.50;;
69985;SDS011;57328;52.054;5.294;2022-09-12T16:26:09;4.80;;;2.83;;
69985;SDS011;57328;52.054;5.294;2022-09-12T16:28:36;4.57;;;2.58;;
69985;SDS011;57328;52.054;5.294;2022-09-12T16:31:04;5.05;;;2.70;;
69985;SDS011;57328;52.054;5.294;2022-09-12T16:33:35;4.35;;;2.55;;
69985;SDS011;57328;52.054;5.294;2022-09-12T16:36:03;4.47;;;2.38;;
69985;SDS011;57328;52.054;5.294;2022-09-12T16:38:31;5.70;;;2.80;;
69985;SDS011;57328;52.054;5.294;2022-09-12T16:41:02;3.63;;;2.45;;
69985;SDS011;57328;52.054;5.294;2022-09-12T16:43:29;4.15;;;2.50;;
69985;SDS011;57328;52.054;5.294;2022-09-12T16:48:24;4.57;;;2.50;;
69985;SDS011;57328;52.054;5.294;2022-09-12T16:50:59;5.50;;;2.58;;
69985;SDS011;57328;52.054;5.294;2022-09-12T16:53:30;4.05;;;2.63;;
69985;SDS011;57328;52.054;5.294;2022-09-12T16:58:25;4.82;;;2.50;;
69985;SDS011;57328;52.054;5.294;2022-09-12T17:01:00;5.30;;;2.20;;
69985;SDS011;57328;52.054;5.294;2022-09-12T17:03:28;4.13;;;2.60;;
69985;SDS011;57328;52.054;5.294;2022-09-12T17:08:26;7.05;;;3.50;;
69985;SDS011;57328;52.054;5.294;2022-09-12T17:11:02;5.32;;;2.90;;
69985;SDS011;57328;52.054;5.294;2022-09-12T17:13:29;6.20;;;3.10;;
69985;SDS011;57328;52.054;5.294;2022-09-12T17:16:16;5.97;;;3.08;;
69985;SDS011;57328;52.054;5.294;2022-09-12T17:18:44;4.82;;;3.20;;
69985;SDS011;57328;52.054;5.294;2022-09-12T17:21:12;5.25;;;3.10;;
69985;SDS011;57328;52.054;5.294;2022-09-12T17:23:39;7.05;;;3.08;;
69985;SDS011;57328;52.054;5.294;2022-09-12T17:26:07;7.45;;;2.83;;
69985;SDS011;57328;52.054;5.294;2022-09-12T17:28:35;5.15;;;2.80;;
69985;SDS011;57328;52.054;5.294;2022-09-12T17:31:03;6.57;;;3.00;;